sensor_id;sensor_type;location;lat;lon;timestamp;temperature;humidity
16505;HTU21D;8365;51.030;4.696;2024-02-21T00:02:24;9.88;118.99
16505;HTU21D;8365;51.030;4.696;2024-02-21T00:04:54;9.89;118.99
16505;HTU21D;8365;51.030;4.696;2024-02-21T00:07:25;9.88;118.99
16505;HTU21D;8365;51.030;4.696;2024-02-21T00:09:55;9.91;118.99
16505;HTU21D;8365;51.030;4.696;2024-02-21T00:12:26;9.83;118.99
16505;HTU21D;8365;51.030;4.696;2024-02-21T00:14:59;9.81;118.99
16505;HTU21D;8365;51.030;4.696;2024-02-21T00:17:32;9.81;118.99
16505;HTU21D;8365;51.030;4.696;2024-02-21T00:20:02;9.85;118.99
16505;HTU21D;8365;51.030;4.696;2024-02-21T00:22:33;9.92;118.99
16505;HTU21D;8365;51.030;4.696;2024-02-21T00:25:04;9.91;118.99
16505;HTU21D;8365;51.030;4.696;2024-02-21T00:27:34;9.89;118.99
16505;HTU21D;8365;51.030;4.696;2024-02-21T00:30:05;9.82;118.99
16505;HTU21D;8365;51.030;4.696;2024-02-21T00:32:36;9.76;118.99
16505;HTU21D;8365;51.030;4.696;2024-02-21T00:35:07;9.84;118.99
16505;HTU21D;8365;51.030;4.696;2024-02-21T00:37:37;9.82;118.99
16505;HTU21D;8365;51.030;4.696;2024-02-21T00:40:08;9.84;118.99
16505;HTU21D;8365;51.030;4.696;2024-02-21T00:42:39;9.86;118.99
16505;HTU21D;8365;51.030;4.696;2024-02-21T00:45:09;9.97;118.99
16505;HTU21D;8365;51.030;4.696;2024-02-21T00:47:40;9.93;118.99
16505;HTU21D;8365;51.030;4.696;2024-02-21T00:50:10;9.92;118.99
16505;HTU21D;8365;51.030;4.696;2024-02-21T00:52:41;9.86;118.99
16505;HTU21D;8365;51.030;4.696;2024-02-21T00:55:11;10.00;118.99
16505;HTU21D;8365;51.030;4.696;2024-02-21T00:57:42;9.88;118.99
16505;HTU21D;8365;51.030;4.696;2024-02-21T01:00:13;9.86;118.99
16505;HTU21D;8365;51.030;4.696;2024-02-21T01:02:43;9.88;118.99
16505;HTU21D;8365;51.030;4.696;2024-02-21T01:05:14;9.98;118.99
16505;HTU21D;8365;51.030;4.696;2024-02-21T01:07:44;9.93;118.99
16505;HTU21D;8365;51.030;4.696;2024-02-21T01:10:15;9.96;118.99
16505;HTU21D;8365;51.030;4.696;2024-02-21T01:12:45;9.91;118.99
16505;HTU21D;8365;51.030;4.696;2024-02-21T01:15:16;9.89;118.99
16505;HTU21D;8365;51.030;4.696;2024-02-21T01:17:46;9.85;118.99
16505;HTU21D;8365;51.030;4.696;2024-02-21T01:20:17;9.88;118.99
16505;HTU21D;8365;51.030;4.696;2024-02-21T01:22:50;9.86;118.99
16505;HTU21D;8365;51.030;4.696;2024-02-21T01:25:23;9.83;118.99
16505;HTU21D;8365;51.030;4.696;2024-02-21T01:27:53;9.89;118.99
16505;HTU21D;8365;51.030;4.696;2024-02-21T01:30:24;9.92;118.99
16505;HTU21D;8365;51.030;4.696;2024-02-21T01:32:54;9.84;118.99
16505;HTU21D;8365;51.030;4.696;2024-02-21T01:35:25;9.91;118.99
16505;HTU21D;8365;51.030;4.696;2024-02-21T01:37:55;10.00;118.99
16505;HTU21D;8365;51.030;4.696;2024-02-21T01:40:25;9.98;118.99
16505;HTU21D;8365;51.030;4.696;2024-02-21T01:42:56;9.92;118.99
16505;HTU21D;8365;51.030;4.696;2024-02-21T01:45:26;9.90;118.99
16505;HTU21D;8365;51.030;4.696;2024-02-21T01:47:57;9.93;118.99
16505;HTU21D;8365;51.030;4.696;2024-02-21T01:50:28;9.92;118.99
16505;HTU21D;8365;51.030;4.696;2024-02-21T01:53:02;10.04;118.99
16505;HTU21D;8365;51.030;4.696;2024-02-21T01:55:32;10.00;118.99
16505;HTU21D;8365;51.030;4.696;2024-02-21T01:58:03;10.06;118.99
16505;HTU21D;8365;51.030;4.696;2024-02-21T02:00:39;10.05;118.99
16505;HTU21D;8365;51.030;4.696;2024-02-21T02:03:12;10.12;118.99
16505;HTU21D;8365;51.030;4.696;2024-02-21T02:05:49;10.04;118.99
16505;HTU21D;8365;51.030;4.696;2024-02-21T02:08:21;9.98;118.99
16505;HTU21D;8365;51.030;4.696;2024-02-21T02:10:54;10.06;118.99
16505;HTU21D;8365;51.030;4.696;2024-02-21T02:13:25;10.04;118.99
16505;HTU21D;8365;51.030;4.696;2024-02-21T02:15:56;9.90;118.99
16505;HTU21D;8365;51.030;4.696;2024-02-21T02:18:26;9.95;118.99
16505;HTU21D;8365;51.030;4.696;2024-02-21T02:20:59;9.86;118.99
16505;HTU21D;8365;51.030;4.696;2024-02-21T02:23:30;9.99;118.99
16505;HTU21D;8365;51.030;4.696;2024-02-21T02:26:04;10.00;118.99
16505;HTU21D;8365;51.030;4.696;2024-02-21T02:28:37;9.97;118.99
16505;HTU21D;8365;51.030;4.696;2024-02-21T02:31:07;9.91;118.99
16505;HTU21D;8365;51.030;4.696;2024-02-21T02:33:38;10.03;118.99
16505;HTU21D;8365;51.030;4.696;2024-02-21T02:36:08;9.91;118.99
16505;HTU21D;8365;51.030;4.696;2024-02-21T02:38:39;9.91;118.99
16505;HTU21D;8365;51.030;4.696;2024-02-21T02:41:09;9.89;118.99
16505;HTU21D;8365;51.030;4.696;2024-02-21T02:43:40;9.91;118.99
16505;HTU21D;8365;51.030;4.696;2024-02-21T02:46:10;9.76;118.99
16505;HTU21D;8365;51.030;4.696;2024-02-21T02:48:41;9.70;118.99
16505;HTU21D;8365;51.030;4.696;2024-02-21T02:51:14;9.64;118.99
16505;HTU21D;8365;51.030;4.696;2024-02-21T02:53:44;9.67;118.99
16505;HTU21D;8365;51.030;4.696;2024-02-21T02:56:15;9.59;118.99
16505;HTU21D;8365;51.030;4.696;2024-02-21T02:58:46;9.67;118.99
16505;HTU21D;8365;51.030;4.696;2024-02-21T03:01:16;9.60;118.99
16505;HTU21D;8365;51.030;4.696;2024-02-21T03:03:47;9.64;118.99
16505;HTU21D;8365;51.030;4.696;2024-02-21T03:06:17;9.70;118.99
16505;HTU21D;8365;51.030;4.696;2024-02-21T03:08:48;9.65;118.99
16505;HTU21D;8365;51.030;4.696;2024-02-21T03:11:19;9.62;118.99
16505;HTU21D;8365;51.030;4.696;2024-02-21T03:13:49;9.55;118.99
16505;HTU21D;8365;51.030;4.696;2024-02-21T03:16:21;9.65;118.99
16505;HTU21D;8365;51.030;4.696;2024-02-21T03:18:51;9.68;118.99
16505;HTU21D;8365;51.030;4.696;2024-02-21T03:21:22;9.86;118.99
16505;HTU21D;8365;51.030;4.696;2024-02-21T03:23:52;9.81;118.99
16505;HTU21D;8365;51.030;4.696;2024-02-21T03:26:23;9.96;118.99
16505;HTU21D;8365;51.030;4.696;2024-02-21T03:28:53;10.01;118.99
16505;HTU21D;8365;51.030;4.696;2024-02-21T03:31:26;9.90;118.99
16505;HTU21D;8365;51.030;4.696;2024-02-21T03:33:56;9.97;118.99
16505;HTU21D;8365;51.030;4.696;2024-02-21T03:36:27;9.82;118.99
16505;HTU21D;8365;51.030;4.696;2024-02-21T03:38:57;9.86;118.99
16505;HTU21D;8365;51.030;4.696;2024-02-21T03:41:28;9.80;118.99
16505;HTU21D;8365;51.030;4.696;2024-02-21T03:43:59;9.98;118.99
16505;HTU21D;8365;51.030;4.696;2024-02-21T03:46:32;9.72;118.99
16505;HTU21D;8365;51.030;4.696;2024-02-21T03:49:02;9.51;118.99
16505;HTU21D;8365;51.030;4.696;2024-02-21T03:51:33;9.71;118.99
16505;HTU21D;8365;51.030;4.696;2024-02-21T03:54:03;9.74;118.99
16505;HTU21D;8365;51.030;4.696;2024-02-21T03:56:37;9.75;118.99
16505;HTU21D;8365;51.030;4.696;2024-02-21T03:59:10;9.70;118.99
16505;HTU21D;8365;51.030;4.696;2024-02-21T04:01:40;9.51;118.99
16505;HTU21D;8365;51.030;4.696;2024-02-21T04:04:11;9.62;118.99
16505;HTU21D;8365;51.030;4.696;2024-02-21T04:06:51;9.64;118.99
16505;HTU21D;8365;51.030;4.696;2024-02-21T04:09:24;9.69;118.99
16505;HTU21D;8365;51.030;4.696;2024-02-21T04:11:54;9.44;118.99
16505;HTU21D;8365;51.030;4.696;2024-02-21T04:14:25;9.47;118.99
16505;HTU21D;8365;51.030;4.696;2024-02-21T04:16:58;9.44;118.99
16505;HTU21D;8365;51.030;4.696;2024-02-21T04:19:28;9.40;118.99
16505;HTU21D;8365;51.030;4.696;2024-02-21T04:21:59;9.48;118.99
16505;HTU21D;8365;51.030;4.696;2024-02-21T04:24:29;9.48;118.99
16505;HTU21D;8365;51.030;4.696;2024-02-21T04:27:00;9.30;118.99
16505;HTU21D;8365;51.030;4.696;2024-02-21T04:29:30;9.37;118.99
16505;HTU21D;8365;51.030;4.696;2024-02-21T04:32:03;9.29;118.99
16505;HTU21D;8365;51.030;4.696;2024-02-21T04:34:35;9.41;118.99
16505;HTU21D;8365;51.030;4.696;2024-02-21T04:37:05;9.50;118.99
16505;HTU21D;8365;51.030;4.696;2024-02-21T04:39:36;9.30;118.99
16505;HTU21D;8365;51.030;4.696;2024-02-21T04:42:06;9.39;118.99
16505;HTU21D;8365;51.030;4.696;2024-02-21T04:44:37;9.37;118.99
16505;HTU21D;8365;51.030;4.696;2024-02-21T04:47:08;9.41;118.99
16505;HTU21D;8365;51.030;4.696;2024-02-21T04:49:39;9.42;118.99
16505;HTU21D;8365;51.030;4.696;2024-02-21T04:52:09;9.38;118.99
16505;HTU21D;8365;51.030;4.696;2024-02-21T04:54:40;9.40;118.99
16505;HTU21D;8365;51.030;4.696;2024-02-21T04:57:10;9.47;118.99
16505;HTU21D;8365;51.030;4.696;2024-02-21T04:59:41;9.39;118.99
16505;HTU21D;8365;51.030;4.696;2024-02-21T05:02:11;9.36;118.99
16505;HTU21D;8365;51.030;4.696;2024-02-21T05:04:42;9.40;118.99
16505;HTU21D;8365;51.030;4.696;2024-02-21T05:07:13;9.48;118.99
16505;HTU21D;8365;51.030;4.696;2024-02-21T05:09:43;9.42;118.99
16505;HTU21D;8365;51.030;4.696;2024-02-21T05:12:14;9.36;118.99
16505;HTU21D;8365;51.030;4.696;2024-02-21T05:14:44;9.38;118.99
16505;HTU21D;8365;51.030;4.696;2024-02-21T05:17:15;9.35;118.99
16505;HTU21D;8365;51.030;4.696;2024-02-21T05:19:45;9.46;118.99
16505;HTU21D;8365;51.030;4.696;2024-02-21T05:22:16;9.41;118.99
16505;HTU21D;8365;51.030;4.696;2024-02-21T05:24:47;9.39;118.99
16505;HTU21D;8365;51.030;4.696;2024-02-21T05:27:17;9.38;118.99
16505;HTU21D;8365;51.030;4.696;2024-02-21T05:29:48;9.31;118.99
16505;HTU21D;8365;51.030;4.696;2024-02-21T05:32:20;9.34;118.99
16505;HTU21D;8365;51.030;4.696;2024-02-21T05:34:51;9.32;118.99
16505;HTU21D;8365;51.030;4.696;2024-02-21T05:37:21;9.33;118.99
16505;HTU21D;8365;51.030;4.696;2024-02-21T05:39:52;9.24;118.99
16505;HTU21D;8365;51.030;4.696;2024-02-21T05:42:22;9.23;118.99
16505;HTU21D;8365;51.030;4.696;2024-02-21T05:44:55;9.34;118.99
16505;HTU21D;8365;51.030;4.696;2024-02-21T05:47:25;9.42;118.99
16505;HTU21D;8365;51.030;4.696;2024-02-21T05:50:01;9.34;118.99
16505;HTU21D;8365;51.030;4.696;2024-02-21T05:52:31;9.24;118.99
16505;HTU21D;8365;51.030;4.696;2024-02-21T05:55:02;9.24;118.99
16505;HTU21D;8365;51.030;4.696;2024-02-21T05:57:33;9.29;118.99
16505;HTU21D;8365;51.030;4.696;2024-02-21T06:00:05;9.20;118.99
16505;HTU21D;8365;51.030;4.696;2024-02-21T06:02:36;9.17;118.99
16505;HTU21D;8365;51.030;4.696;2024-02-21T06:05:07;9.34;118.99
16505;HTU21D;8365;51.030;4.696;2024-02-21T06:07:38;9.32;118.99
16505;HTU21D;8365;51.030;4.696;2024-02-21T06:10:09;9.32;118.99
16505;HTU21D;8365;51.030;4.696;2024-02-21T06:12:39;9.24;118.99
16505;HTU21D;8365;51.030;4.696;2024-02-21T06:15:10;9.29;118.99
16505;HTU21D;8365;51.030;4.696;2024-02-21T06:17:40;9.22;118.99
16505;HTU21D;8365;51.030;4.696;2024-02-21T06:20:16;9.22;118.99
16505;HTU21D;8365;51.030;4.696;2024-02-21T06:22:46;9.27;118.99
16505;HTU21D;8365;51.030;4.696;2024-02-21T06:25:17;9.30;118.99
16505;HTU21D;8365;51.030;4.696;2024-02-21T06:27:47;9.40;118.99
16505;HTU21D;8365;51.030;4.696;2024-02-21T06:30:20;9.34;118.99
16505;HTU21D;8365;51.030;4.696;2024-02-21T06:32:51;9.39;118.99
16505;HTU21D;8365;51.030;4.696;2024-02-21T06:35:26;9.45;118.99
16505;HTU21D;8365;51.030;4.696;2024-02-21T06:37:56;9.37;118.99
16505;HTU21D;8365;51.030;4.696;2024-02-21T06:40:29;9.35;118.99
16505;HTU21D;8365;51.030;4.696;2024-02-21T06:43:01;9.38;118.99
16505;HTU21D;8365;51.030;4.696;2024-02-21T06:45:32;9.39;118.99
16505;HTU21D;8365;51.030;4.696;2024-02-21T06:48:03;9.44;118.99
16505;HTU21D;8365;51.030;4.696;2024-02-21T06:50:33;9.61;118.99
16505;HTU21D;8365;51.030;4.696;2024-02-21T06:53:04;9.47;118.99
16505;HTU21D;8365;51.030;4.696;2024-02-21T06:55:35;9.50;118.99
16505;HTU21D;8365;51.030;4.696;2024-02-21T06:58:05;9.49;118.99
16505;HTU21D;8365;51.030;4.696;2024-02-21T07:00:39;9.56;118.99
16505;HTU21D;8365;51.030;4.696;2024-02-21T07:03:10;9.42;118.99
16505;HTU21D;8365;51.030;4.696;2024-02-21T07:05:41;9.47;118.99
16505;HTU21D;8365;51.030;4.696;2024-02-21T07:08:11;9.34;118.99
16505;HTU21D;8365;51.030;4.696;2024-02-21T07:10:41;9.31;118.99
16505;HTU21D;8365;51.030;4.696;2024-02-21T07:13:12;9.37;118.99
16505;HTU21D;8365;51.030;4.696;2024-02-21T07:15:45;9.34;118.99
16505;HTU21D;8365;51.030;4.696;2024-02-21T07:18:16;9.31;118.99
16505;HTU21D;8365;51.030;4.696;2024-02-21T07:20:46;9.37;118.99
16505;HTU21D;8365;51.030;4.696;2024-02-21T07:23:18;9.34;118.99
16505;HTU21D;8365;51.030;4.696;2024-02-21T07:25:48;9.37;118.99
16505;HTU21D;8365;51.030;4.696;2024-02-21T07:28:21;9.35;118.99
16505;HTU21D;8365;51.030;4.696;2024-02-21T07:30:51;9.29;118.99
16505;HTU21D;8365;51.030;4.696;2024-02-21T07:33:22;9.26;118.99
16505;HTU21D;8365;51.030;4.696;2024-02-21T07:35:52;9.23;118.99
16505;HTU21D;8365;51.030;4.696;2024-02-21T07:38:23;9.17;118.99
16505;HTU21D;8365;51.030;4.696;2024-02-21T07:40:53;9.00;118.99
16505;HTU21D;8365;51.030;4.696;2024-02-21T07:43:24;9.06;118.99
16505;HTU21D;8365;51.030;4.696;2024-02-21T07:45:56;9.06;118.99
16505;HTU21D;8365;51.030;4.696;2024-02-21T07:48:27;8.89;118.99
16505;HTU21D;8365;51.030;4.696;2024-02-21T07:50:59;8.82;118.99
16505;HTU21D;8365;51.030;4.696;2024-02-21T07:53:30;8.80;118.99
16505;HTU21D;8365;51.030;4.696;2024-02-21T07:56:00;8.83;118.99
16505;HTU21D;8365;51.030;4.696;2024-02-21T07:58:33;8.75;118.99
16505;HTU21D;8365;51.030;4.696;2024-02-21T08:01:04;8.73;118.99
16505;HTU21D;8365;51.030;4.696;2024-02-21T08:03:35;8.80;118.99
16505;HTU21D;8365;51.030;4.696;2024-02-21T08:06:05;8.75;118.99
16505;HTU21D;8365;51.030;4.696;2024-02-21T08:08:36;8.74;118.99
16505;HTU21D;8365;51.030;4.696;2024-02-21T08:11:06;8.78;118.99
16505;HTU21D;8365;51.030;4.696;2024-02-21T08:13:37;8.80;118.99
16505;HTU21D;8365;51.030;4.696;2024-02-21T08:16:07;8.90;118.99
16505;HTU21D;8365;51.030;4.696;2024-02-21T08:18:37;8.81;118.99
16505;HTU21D;8365;51.030;4.696;2024-02-21T08:21:12;8.80;118.99
16505;HTU21D;8365;51.030;4.696;2024-02-21T08:23:42;8.79;118.99
16505;HTU21D;8365;51.030;4.696;2024-02-21T08:26:13;8.75;118.99
16505;HTU21D;8365;51.030;4.696;2024-02-21T08:28:43;8.85;118.99
16505;HTU21D;8365;51.030;4.696;2024-02-21T08:31:22;8.93;118.99
16505;HTU21D;8365;51.030;4.696;2024-02-21T08:33:54;8.93;118.99
16505;HTU21D;8365;51.030;4.696;2024-02-21T08:36:26;9.05;118.99
16505;HTU21D;8365;51.030;4.696;2024-02-21T08:38:57;9.04;118.99
16505;HTU21D;8365;51.030;4.696;2024-02-21T08:41:27;9.08;118.99
16505;HTU21D;8365;51.030;4.696;2024-02-21T08:43:58;9.01;118.99
16505;HTU21D;8365;51.030;4.696;2024-02-21T08:46:28;9.02;118.99
16505;HTU21D;8365;51.030;4.696;2024-02-21T08:48:58;9.09;118.99
16505;HTU21D;8365;51.030;4.696;2024-02-21T08:51:29;9.12;118.99
16505;HTU21D;8365;51.030;4.696;2024-02-21T08:53:59;9.16;118.99
16505;HTU21D;8365;51.030;4.696;2024-02-21T08:56:31;9.20;118.99
16505;HTU21D;8365;51.030;4.696;2024-02-21T08:59:02;9.23;118.99
16505;HTU21D;8365;51.030;4.696;2024-02-21T09:01:32;9.23;118.99
16505;HTU21D;8365;51.030;4.696;2024-02-21T09:04:04;9.41;118.99
16505;HTU21D;8365;51.030;4.696;2024-02-21T09:06:35;9.38;118.99
16505;HTU21D;8365;51.030;4.696;2024-02-21T09:09:09;9.49;118.99
16505;HTU21D;8365;51.030;4.696;2024-02-21T09:11:40;9.46;118.99
16505;HTU21D;8365;51.030;4.696;2024-02-21T09:14:11;9.39;118.99
16505;HTU21D;8365;51.030;4.696;2024-02-21T09:16:42;9.49;118.99
16505;HTU21D;8365;51.030;4.696;2024-02-21T09:19:12;9.53;118.99
16505;HTU21D;8365;51.030;4.696;2024-02-21T09:21:43;9.46;118.99
16505;HTU21D;8365;51.030;4.696;2024-02-21T09:24:13;9.52;118.99
16505;HTU21D;8365;51.030;4.696;2024-02-21T09:26:44;9.44;118.99
16505;HTU21D;8365;51.030;4.696;2024-02-21T09:29:15;9.53;118.99
16505;HTU21D;8365;51.030;4.696;2024-02-21T09:31:46;9.59;118.99
16505;HTU21D;8365;51.030;4.696;2024-02-21T09:34:18;9.79;118.99
16505;HTU21D;8365;51.030;4.696;2024-02-21T09:36:48;9.72;118.99
16505;HTU21D;8365;51.030;4.696;2024-02-21T09:39:18;9.79;118.99
16505;HTU21D;8365;51.030;4.696;2024-02-21T09:42:00;9.92;118.99
16505;HTU21D;8365;51.030;4.696;2024-02-21T09:44:36;9.77;118.99
16505;HTU21D;8365;51.030;4.696;2024-02-21T09:47:32;10.04;118.99
16505;HTU21D;8365;51.030;4.696;2024-02-21T09:50:04;10.09;118.99
16505;HTU21D;8365;51.030;4.696;2024-02-21T09:52:35;10.08;118.99
16505;HTU21D;8365;51.030;4.696;2024-02-21T09:55:09;10.08;118.99
16505;HTU21D;8365;51.030;4.696;2024-02-21T09:57:44;10.11;118.99
16505;HTU21D;8365;51.030;4.696;2024-02-21T10:00:15;10.23;118.99
16505;HTU21D;8365;51.030;4.696;2024-02-21T10:02:51;10.21;118.99
16505;HTU21D;8365;51.030;4.696;2024-02-21T10:05:22;10.25;118.99
16505;HTU21D;8365;51.030;4.696;2024-02-21T10:07:55;10.46;118.99
16505;HTU21D;8365;51.030;4.696;2024-02-21T10:10:26;10.45;118.99
16505;HTU21D;8365;51.030;4.696;2024-02-21T10:12:57;10.53;118.99
16505;HTU21D;8365;51.030;4.696;2024-02-21T10:15:28;10.31;118.99
16505;HTU21D;8365;51.030;4.696;2024-02-21T10:18:00;10.42;118.99
16505;HTU21D;8365;51.030;4.696;2024-02-21T10:20:34;10.48;118.99
16505;HTU21D;8365;51.030;4.696;2024-02-21T10:23:08;10.46;118.99
16505;HTU21D;8365;51.030;4.696;2024-02-21T10:25:39;10.56;118.99
16505;HTU21D;8365;51.030;4.696;2024-02-21T10:28:15;10.64;118.99
16505;HTU21D;8365;51.030;4.696;2024-02-21T10:30:51;10.79;118.99
16505;HTU21D;8365;51.030;4.696;2024-02-21T10:33:22;10.57;118.99
16505;HTU21D;8365;51.030;4.696;2024-02-21T10:35:54;10.73;118.99
16505;HTU21D;8365;51.030;4.696;2024-02-21T10:38:25;10.59;118.99
16505;HTU21D;8365;51.030;4.696;2024-02-21T10:40:55;10.66;118.99
16505;HTU21D;8365;51.030;4.696;2024-02-21T10:43:35;10.79;118.99
16505;HTU21D;8365;51.030;4.696;2024-02-21T10:46:08;10.89;118.99
16505;HTU21D;8365;51.030;4.696;2024-02-21T10:48:43;10.72;118.99
16505;HTU21D;8365;51.030;4.696;2024-02-21T10:51:18;10.74;118.99
16505;HTU21D;8365;51.030;4.696;2024-02-21T10:56:29;10.89;118.99
16505;HTU21D;8365;51.030;4.696;2024-02-21T10:59:07;10.80;118.99
16505;HTU21D;8365;51.030;4.696;2024-02-21T11:01:38;10.90;118.99
16505;HTU21D;8365;51.030;4.696;2024-02-21T11:04:09;10.83;118.99
16505;HTU21D;8365;51.030;4.696;2024-02-21T11:06:42;11.00;118.99
16505;HTU21D;8365;51.030;4.696;2024-02-21T11:09:13;10.90;118.99
16505;HTU21D;8365;51.030;4.696;2024-02-21T11:11:44;11.07;118.99
16505;HTU21D;8365;51.030;4.696;2024-02-21T11:14:18;11.01;118.99
16505;HTU21D;8365;51.030;4.696;2024-02-21T11:16:49;11.15;118.99
16505;HTU21D;8365;51.030;4.696;2024-02-21T11:21:51;11.14;118.99
16505;HTU21D;8365;51.030;4.696;2024-02-21T11:24:34;11.39;118.99
16505;HTU21D;8365;51.030;4.696;2024-02-21T11:29:46;11.40;118.99
16505;HTU21D;8365;51.030;4.696;2024-02-21T11:32:19;11.41;118.99
16505;HTU21D;8365;51.030;4.696;2024-02-21T11:34:58;11.62;118.99
16505;HTU21D;8365;51.030;4.696;2024-02-21T11:37:33;11.55;118.99
16505;HTU21D;8365;51.030;4.696;2024-02-21T11:40:05;11.59;118.99
16505;HTU21D;8365;51.030;4.696;2024-02-21T11:42:37;11.44;118.99
16505;HTU21D;8365;51.030;4.696;2024-02-21T11:45:08;11.34;118.99
16505;HTU21D;8365;51.030;4.696;2024-02-21T11:47:43;11.26;118.99
16505;HTU21D;8365;51.030;4.696;2024-02-21T11:50:13;11.25;118.99
16505;HTU21D;8365;51.030;4.696;2024-02-21T11:52:44;11.37;118.99
16505;HTU21D;8365;51.030;4.696;2024-02-21T11:55:16;11.57;118.99
16505;HTU21D;8365;51.030;4.696;2024-02-21T11:57:50;11.48;118.99
16505;HTU21D;8365;51.030;4.696;2024-02-21T12:00:21;11.31;118.99
16505;HTU21D;8365;51.030;4.696;2024-02-21T12:02:52;11.46;118.99
16505;HTU21D;8365;51.030;4.696;2024-02-21T12:05:22;11.43;118.99
16505;HTU21D;8365;51.030;4.696;2024-02-21T12:07:53;11.53;118.99
16505;HTU21D;8365;51.030;4.696;2024-02-21T12:10:24;11.45;118.99
16505;HTU21D;8365;51.030;4.696;2024-02-21T12:13:08;11.57;118.99
16505;HTU21D;8365;51.030;4.696;2024-02-21T12:15:39;11.51;118.99
16505;HTU21D;8365;51.030;4.696;2024-02-21T12:18:11;11.51;118.99
16505;HTU21D;8365;51.030;4.696;2024-02-21T12:20:41;11.45;118.99
16505;HTU21D;8365;51.030;4.696;2024-02-21T12:23:12;11.29;118.99
16505;HTU21D;8365;51.030;4.696;2024-02-21T12:25:44;11.33;118.99
16505;HTU21D;8365;51.030;4.696;2024-02-21T12:28:16;11.24;118.99
16505;HTU21D;8365;51.030;4.696;2024-02-21T12:30:47;11.31;118.99
16505;HTU21D;8365;51.030;4.696;2024-02-21T12:33:18;11.20;118.99
16505;HTU21D;8365;51.030;4.696;2024-02-21T12:35:48;11.18;118.99
16505;HTU21D;8365;51.030;4.696;2024-02-21T12:38:19;11.27;118.99
16505;HTU21D;8365;51.030;4.696;2024-02-21T12:40:51;11.18;118.99
16505;HTU21D;8365;51.030;4.696;2024-02-21T12:43:21;11.19;118.99
16505;HTU21D;8365;51.030;4.696;2024-02-21T12:45:52;11.14;118.99
16505;HTU21D;8365;51.030;4.696;2024-02-21T12:48:25;11.10;118.99
16505;HTU21D;8365;51.030;4.696;2024-02-21T12:50:55;11.09;118.99
16505;HTU21D;8365;51.030;4.696;2024-02-21T12:53:26;11.11;118.99
16505;HTU21D;8365;51.030;4.696;2024-02-21T12:55:57;11.12;118.99
16505;HTU21D;8365;51.030;4.696;2024-02-21T12:58:27;11.19;118.99
16505;HTU21D;8365;51.030;4.696;2024-02-21T13:00:59;11.12;118.99
16505;HTU21D;8365;51.030;4.696;2024-02-21T13:03:29;11.29;118.99
16505;HTU21D;8365;51.030;4.696;2024-02-21T13:06:00;11.34;118.99
16505;HTU21D;8365;51.030;4.696;2024-02-21T13:08:31;11.42;118.99
16505;HTU21D;8365;51.030;4.696;2024-02-21T13:11:01;11.25;118.99
16505;HTU21D;8365;51.030;4.696;2024-02-21T13:13:34;11.34;118.99
16505;HTU21D;8365;51.030;4.696;2024-02-21T13:16:05;11.33;118.99
16505;HTU21D;8365;51.030;4.696;2024-02-21T13:18:35;11.26;118.99
16505;HTU21D;8365;51.030;4.696;2024-02-21T13:21:08;11.09;118.99
16505;HTU21D;8365;51.030;4.696;2024-02-21T13:23:40;11.26;118.99
16505;HTU21D;8365;51.030;4.696;2024-02-21T13:26:10;11.18;118.99
16505;HTU21D;8365;51.030;4.696;2024-02-21T13:28:41;11.27;118.99
16505;HTU21D;8365;51.030;4.696;2024-02-21T13:31:12;11.32;118.99
16505;HTU21D;8365;51.030;4.696;2024-02-21T13:33:43;11.41;118.99
16505;HTU21D;8365;51.030;4.696;2024-02-21T13:36:14;11.44;118.99
16505;HTU21D;8365;51.030;4.696;2024-02-21T13:38:48;11.38;118.99
16505;HTU21D;8365;51.030;4.696;2024-02-21T13:41:19;11.31;118.99
16505;HTU21D;8365;51.030;4.696;2024-02-21T13:43:49;11.24;118.99
16505;HTU21D;8365;51.030;4.696;2024-02-21T13:46:20;11.32;118.99
16505;HTU21D;8365;51.030;4.696;2024-02-21T13:48:54;11.31;118.99
16505;HTU21D;8365;51.030;4.696;2024-02-21T13:51:33;11.17;118.99
16505;HTU21D;8365;51.030;4.696;2024-02-21T13:54:06;11.17;118.99
16505;HTU21D;8365;51.030;4.696;2024-02-21T13:56:39;11.11;118.99
16505;HTU21D;8365;51.030;4.696;2024-02-21T13:59:09;10.94;118.99
16505;HTU21D;8365;51.030;4.696;2024-02-21T14:01:40;10.89;118.99
16505;HTU21D;8365;51.030;4.696;2024-02-21T14:04:10;10.87;118.99
16505;HTU21D;8365;51.030;4.696;2024-02-21T14:06:43;10.70;118.99
16505;HTU21D;8365;51.030;4.696;2024-02-21T14:09:14;10.64;118.99
16505;HTU21D;8365;51.030;4.696;2024-02-21T14:11:47;10.53;118.99
16505;HTU21D;8365;51.030;4.696;2024-02-21T14:14:17;10.46;118.99
16505;HTU21D;8365;51.030;4.696;2024-02-21T14:16:48;10.42;118.99
16505;HTU21D;8365;51.030;4.696;2024-02-21T14:19:18;10.36;118.99
16505;HTU21D;8365;51.030;4.696;2024-02-21T14:21:49;10.36;118.99
16505;HTU21D;8365;51.030;4.696;2024-02-21T14:24:24;10.21;118.99
16505;HTU21D;8365;51.030;4.696;2024-02-21T14:26:54;10.13;118.99
16505;HTU21D;8365;51.030;4.696;2024-02-21T14:29:27;10.04;118.99
16505;HTU21D;8365;51.030;4.696;2024-02-21T14:32:00;10.05;118.99
16505;HTU21D;8365;51.030;4.696;2024-02-21T14:34:30;10.03;118.99
16505;HTU21D;8365;51.030;4.696;2024-02-21T14:37:03;9.94;118.99
16505;HTU21D;8365;51.030;4.696;2024-02-21T14:39:34;9.88;118.99
16505;HTU21D;8365;51.030;4.696;2024-02-21T14:42:05;9.82;118.99
16505;HTU21D;8365;51.030;4.696;2024-02-21T14:44:37;9.83;118.99
16505;HTU21D;8365;51.030;4.696;2024-02-21T14:47:07;9.71;118.99
16505;HTU21D;8365;51.030;4.696;2024-02-21T14:49:38;9.76;118.99
16505;HTU21D;8365;51.030;4.696;2024-02-21T14:52:08;9.72;118.99
16505;HTU21D;8365;51.030;4.696;2024-02-21T14:54:40;9.67;118.99
16505;HTU21D;8365;51.030;4.696;2024-02-21T14:57:14;9.62;118.99
16505;HTU21D;8365;51.030;4.696;2024-02-21T14:59:45;9.61;118.99
16505;HTU21D;8365;51.030;4.696;2024-02-21T15:02:15;9.62;118.99
16505;HTU21D;8365;51.030;4.696;2024-02-21T15:04:46;9.61;118.99
16505;HTU21D;8365;51.030;4.696;2024-02-21T15:07:17;9.61;118.99
16505;HTU21D;8365;51.030;4.696;2024-02-21T15:09:54;9.60;118.99
16505;HTU21D;8365;51.030;4.696;2024-02-21T15:12:24;9.54;118.99
16505;HTU21D;8365;51.030;4.696;2024-02-21T15:14:55;9.51;118.99
16505;HTU21D;8365;51.030;4.696;2024-02-21T15:17:25;9.46;118.99
16505;HTU21D;8365;51.030;4.696;2024-02-21T15:19:56;9.47;118.99
16505;HTU21D;8365;51.030;4.696;2024-02-21T15:22:29;9.42;118.99
16505;HTU21D;8365;51.030;4.696;2024-02-21T15:25:02;9.37;118.99
16505;HTU21D;8365;51.030;4.696;2024-02-21T15:27:34;9.36;118.99
16505;HTU21D;8365;51.030;4.696;2024-02-21T15:30:06;9.40;118.99
16505;HTU21D;8365;51.030;4.696;2024-02-21T15:32:40;9.33;118.99
16505;HTU21D;8365;51.030;4.696;2024-02-21T15:35:14;9.32;118.99
16505;HTU21D;8365;51.030;4.696;2024-02-21T15:37:44;9.27;118.99
16505;HTU21D;8365;51.030;4.696;2024-02-21T15:40:15;9.23;118.99
16505;HTU21D;8365;51.030;4.696;2024-02-21T15:42:45;9.27;118.99
16505;HTU21D;8365;51.030;4.696;2024-02-21T15:45:16;9.26;118.99
16505;HTU21D;8365;51.030;4.696;2024-02-21T15:47:49;9.33;118.99
16505;HTU21D;8365;51.030;4.696;2024-02-21T15:50:20;9.29;118.99
16505;HTU21D;8365;51.030;4.696;2024-02-21T15:52:50;9.27;118.99
16505;HTU21D;8365;51.030;4.696;2024-02-21T15:55:21;9.27;118.99
16505;HTU21D;8365;51.030;4.696;2024-02-21T15:57:51;9.21;118.99
16505;HTU21D;8365;51.030;4.696;2024-02-21T16:00:22;9.29;118.99